Time;durP1;ratioP1;P1;durP2;ratioP2;P2;SDS_P1;SDS_P2;PMS_P1;PMS_P2;Temp;Humidity;BMP_temperature;BMP_pressure;BME280_temperature;BME280_humidity;BME280_pressure;Samples;Min_cycle;Max_cycle;Signal;HPM_P1;HPM_P2
2023/08/17 00:02:14;;;;;;;7.43;2.55;;;;;;;17.46;94.73;101976.16;4938459;29;20032;-81
2023/08/17 00:04:40;;;;;;;7.07;2.38;;;;;;;17.45;95.15;101971.06;4938542;29;20028;-81
2023/08/17 00:07:06;;;;;;;5.28;2.90;;;;;;;17.36;94.97;101969.13;4938283;29;20115;-81
2023/08/17 00:09:32;;;;;;;6.53;2.72;;;;;;;17.44;95.10;101983.28;4938312;29;20103;-79
2023/08/17 00:11:58;;;;;;;7.13;2.65;;;;;;;17.48;94.90;101983.88;4938209;29;20504;-80
2023/08/17 00:14:23;;;;;;;4.93;2.75;;;;;;;17.50;95.38;101976.75;4938320;29;20023;-81
2023/08/17 00:16:52;;;;;;;4.72;2.63;;;;;;;17.44;95.56;101969.41;4938395;29;20385;-81
2023/08/17 00:19:17;;;;;;;6.00;3.08;;;;;;;17.49;94.81;101968.09;4938328;29;20397;-80
2023/08/17 00:21:45;;;;;;;4.53;2.67;;;;;;;17.58;94.26;101966.59;4938103;29;20107;-81
2023/08/17 00:24:11;;;;;;;5.93;2.67;;;;;;;17.25;94.64;101911.66;4938055;29;20039;-81
2023/08/17 00:26:37;;;;;;;7.93;2.80;;;;;;;17.59;94.79;101964.81;4937779;29;20512;-81
2023/08/17 00:29:03;;;;;;;6.85;2.70;;;;;;;17.56;94.47;101959.81;4938043;29;20046;-81
2023/08/17 00:31:28;;;;;;;6.15;2.53;;;;;;;17.40;95.12;101936.59;4937992;29;20114;-81
2023/08/17 00:33:54;;;;;;;6.28;2.80;;;;;;;17.48;95.53;101963.81;4938084;29;20127;-81
2023/08/17 00:36:19;;;;;;;5.30;2.75;;;;;;;17.52;94.44;101961.00;4937904;29;20577;-78
2023/08/17 00:38:44;;;;;;;5.85;2.92;;;;;;;17.49;95.11;101959.44;4937502;29;20035;-82
2023/08/17 00:41:10;;;;;;;7.38;2.90;;;;;;;17.42;94.35;101946.03;4937374;29;20102;-82
2023/08/17 00:43:35;;;;;;;7.30;3.03;;;;;;;17.39;94.61;101946.22;4937932;29;20032;-80
2023/08/17 00:46:01;;;;;;;5.00;2.70;;;;;;;17.50;94.33;101961.09;4937803;29;20031;-80
2023/08/17 00:48:28;;;;;;;6.20;2.80;;;;;;;17.51;93.98;101969.78;4937734;29;20028;-81
2023/08/17 00:50:55;;;;;;;4.55;2.50;;;;;;;17.43;94.76;101967.75;4937629;29;20031;-81
2023/08/17 00:53:21;;;;;;;5.10;2.78;;;;;;;17.29;94.63;101955.69;4937476;29;20028;-81
2023/08/17 00:55:47;;;;;;;6.68;2.72;;;;;;;17.28;95.40;101961.84;4937509;29;20035;-82
2023/08/17 00:58:13;;;;;;;6.38;3.08;;;;;;;17.15;95.19;101946.25;4937580;29;20031;-81
2023/08/17 01:00:39;;;;;;;5.15;2.60;;;;;;;17.27;96.05;101977.63;4938026;29;20039;-81
2023/08/17 01:03:05;;;;;;;6.57;2.95;;;;;;;17.26;95.56;101971.56;4937447;29;20024;-81
2023/08/17 01:05:32;;;;;;;6.38;2.88;;;;;;;17.30;96.09;101972.19;4937552;29;20031;-82
2023/08/17 01:07:58;;;;;;;7.80;2.85;;;;;;;17.13;95.82;101944.72;4937123;29;20362;-81
2023/08/17 01:10:25;;;;;;;4.97;3.00;;;;;;;17.31;95.79;101972.09;4937103;29;20135;-80
2023/08/17 01:13:09;;;;;;;5.75;2.63;;;;;;;17.34;95.81;101971.03;4937366;29;20035;-82
2023/08/17 01:15:42;;;;;;;6.60;2.53;;;;;;;17.28;96.17;101961.03;4937237;29;20496;-81
2023/08/17 01:18:21;;;;;;;5.68;2.75;;;;;;;17.36;95.70;101976.97;4937292;29;20102;-81
2023/08/17 01:20:49;;;;;;;6.18;2.90;;;;;;;17.37;96.36;101969.00;4937097;29;20047;-80
2023/08/17 01:23:14;;;;;;;6.47;2.95;;;;;;;17.09;96.19;101930.19;4937104;29;20027;-80
2023/08/17 01:25:39;;;;;;;9.70;3.10;;;;;;;17.36;96.27;101966.53;4936755;29;20032;-77
2023/08/17 01:28:05;;;;;;;4.95;2.80;;;;;;;17.34;95.86;101958.81;4936871;29;20043;-79
2023/08/17 01:30:52;;;;;;;5.28;2.65;;;;;;;17.33;96.02;101967.59;4937046;29;20035;-81
2023/08/17 01:33:40;;;;;;;4.65;2.83;;;;;;;17.31;96.46;101960.81;4936857;29;20103;-82
2023/08/17 01:36:19;;;;;;;8.40;3.00;;;;;;;17.27;96.82;101954.97;4936857;29;20032;-78
2023/08/17 01:38:45;;;;;;;7.13;3.00;;;;;;;17.30;96.66;101959.94;4936853;29;20020;-81
2023/08/17 01:41:13;;;;;;;6.85;2.95;;;;;;;17.25;97.01;101946.41;4936658;29;20082;-82
2023/08/17 01:43:41;;;;;;;5.85;3.00;;;;;;;17.30;96.19;101951.28;4936651;29;20032;-81
2023/08/17 01:46:07;;;;;;;7.13;2.60;;;;;;;17.25;96.46;101954.25;4936951;29;20035;-80
2023/08/17 01:48:32;;;;;;;4.72;2.70;;;;;;;17.21;96.54;101955.44;4936612;29;20024;-82
2023/08/17 01:50:58;;;;;;;5.97;3.30;;;;;;;17.07;96.92;101938.16;4936697;29;20028;-82
2023/08/17 01:53:23;;;;;;;5.88;2.88;;;;;;;17.01;97.28;101929.91;4936049;29;20505;-82
2023/08/17 01:55:48;;;;;;;5.38;2.92;;;;;;;17.15;97.37;101954.09;4936416;29;20126;-81
2023/08/17 01:58:14;;;;;;;8.38;3.22;;;;;;;17.01;97.76;101935.13;4936474;29;20045;-81
2023/08/17 02:00:39;;;;;;;7.30;3.00;;;;;;;17.06;98.18;101948.69;4936410;29;20063;-80
2023/08/17 02:03:04;;;;;;;5.18;2.97;;;;;;;16.97;98.13;101954.59;4936275;29;20091;-82
2023/08/17 02:05:30;;;;;;;5.45;2.95;;;;;;;16.91;98.17;101948.88;4936369;29;20034;-81
2023/08/17 02:07:55;;;;;;;5.68;2.92;;;;;;;16.85;98.50;101956.31;4936449;29;20039;-81
2023/08/17 02:10:20;;;;;;;5.18;2.85;;;;;;;16.56;99.35;101922.66;4935983;29;20028;-81
2023/08/17 02:12:46;;;;;;;7.07;2.92;;;;;;;16.71;100.00;101951.22;4936776;29;20028;-82
2023/08/17 02:15:12;;;;;;;6.45;2.90;;;;;;;16.59;99.96;101953.72;4936137;29;20034;-81
2023/08/17 02:17:37;;;;;;;7.28;3.40;;;;;;;16.50;100.00;101954.38;4936088;29;20426;-81
2023/08/17 02:20:04;;;;;;;7.18;3.10;;;;;;;16.52;99.87;101967.31;4936135;29;20032;-82
2023/08/17 02:22:29;;;;;;;7.82;3.08;;;;;;;16.38;100.00;101942.19;4918395;29;20074;-82
2023/08/17 02:24:54;;;;;;;8.68;3.08;;;;;;;16.31;100.00;101936.56;4936184;29;20063;-80
2023/08/17 02:27:20;;;;;;;6.10;3.08;;;;;;;16.31;100.00;101940.94;4935823;29;20130;-82
2023/08/17 02:29:45;;;;;;;5.70;2.60;;;;;;;16.23;100.00;101936.28;4935882;29;20028;-82
2023/08/17 02:32:10;;;;;;;7.47;3.00;;;;;;;16.41;100.00;101962.00;4935747;29;20031;-80
2023/08/17 02:34:36;;;;;;;5.35;2.83;;;;;;;16.28;99.77;101939.41;4935977;29;20043;-81
2023/08/17 02:37:01;;;;;;;5.50;3.05;;;;;;;16.42;100.00;101948.88;4935817;29;20023;-80
2023/08/17 02:39:26;;;;;;;7.53;3.00;;;;;;;16.37;99.60;101940.53;4935846;29;20055;-80
2023/08/17 02:41:52;;;;;;;5.13;2.78;;;;;;;16.47;99.99;101948.53;4935678;29;20131;-81
2023/08/17 02:44:17;;;;;;;4.55;2.67;;;;;;;16.34;99.62;101932.94;4935478;29;20031;-81
2023/08/17 02:46:42;;;;;;;6.72;3.08;;;;;;;16.44;99.54;101943.56;4935537;29;20030;-81
2023/08/17 02:49:07;;;;;;;6.82;2.78;;;;;;;16.28;99.37;101922.91;4935955;29;20056;-81
2023/08/17 02:51:33;;;;;;;5.40;3.00;;;;;;;16.12;100.00;101907.50;4935624;29;20463;-78
2023/08/17 02:53:58;;;;;;;5.68;2.97;;;;;;;16.35;100.00;101943.25;4935555;29;20078;-81
2023/08/17 02:56:23;;;;;;;6.95;2.83;;;;;;;16.27;100.00;101927.31;4935496;29;20112;-79
2023/08/17 02:58:49;;;;;;;7.35;3.33;;;;;;;16.38;99.86;101946.56;4935417;29;20038;-79
2023/08/17 03:01:14;;;;;;;7.35;3.05;;;;;;;16.10;100.00;101909.38;4935590;29;20076;-81
2023/08/17 03:03:39;;;;;;;6.95;3.13;;;;;;;16.29;100.00;101948.88;4935193;29;20032;-81
2023/08/17 03:06:05;;;;;;;4.88;2.70;;;;;;;16.23;100.00;101940.66;4935109;29;20477;-78
2023/08/17 03:08:30;;;;;;;14.63;3.28;;;;;;;16.15;100.00;101935.16;4897555;29;20181;-78
2023/08/17 03:10:56;;;;;;;6.15;2.88;;;;;;;16.10;100.00;101943.25;4897227;29;20036;-83
2023/08/17 03:13:21;;;;;;;5.20;2.92;;;;;;;16.06;100.00;101944.41;4897510;29;20042;-79
2023/08/17 03:15:46;;;;;;;6.82;2.75;;;;;;;15.98;100.00;101944.94;4897523;29;20020;-80
2023/08/17 03:18:12;;;;;;;4.63;2.78;;;;;;;15.90;100.00;101936.81;4897243;29;20025;-83
2023/08/17 03:20:37;;;;;;;6.43;3.10;;;;;;;15.84;100.00;101934.63;4897242;29;20474;-80
2023/08/17 03:23:06;;;;;;;6.82;3.38;;;;;;;15.88;100.00;101935.25;4897408;29;20059;-80
2023/08/17 03:25:31;;;;;;;6.15;3.05;;;;;;;15.72;100.00;101918.03;4897626;29;20031;-78
2023/08/17 03:27:56;;;;;;;7.18;3.78;;;;;;;15.73;100.00;101921.47;4896947;29;20041;-79
2023/08/17 03:30:22;;;;;;;4.75;3.13;;;;;;;15.81;100.00;101928.78;4897250;29;20489;-81
2023/08/17 03:32:47;;;;;;;5.32;3.40;;;;;;;15.73;100.00;101905.84;4897268;29;20107;-80
2023/08/17 03:35:13;;;;;;;6.88;3.15;;;;;;;15.70;100.00;101896.47;4897273;29;20036;-80
2023/08/17 03:37:38;;;;;;;6.07;3.30;;;;;;;15.95;100.00;101936.50;4897311;29;20028;-81
2023/08/17 03:40:04;;;;;;;7.00;3.35;;;;;;;15.67;100.00;101885.44;4897225;29;20025;-81
2023/08/17 03:42:30;;;;;;;6.68;3.17;;;;;;;15.88;100.00;101922.22;4896906;29;20028;-81
2023/08/17 03:44:55;;;;;;;6.50;3.40;;;;;;;15.98;100.00;101931.09;4895646;29;20037;-77
2023/08/17 03:47:20;;;;;;;10.23;3.67;;;;;;;15.78;100.00;101899.41;4915664;29;20028;-79
2023/08/17 03:49:46;;;;;;;5.45;2.80;;;;;;;15.76;100.00;101906.50;4934911;29;20023;-79
2023/08/17 03:52:12;;;;;;;6.60;3.42;;;;;;;15.75;100.00;101911.81;4935013;29;20110;-81
2023/08/17 03:54:37;;;;;;;8.23;3.17;;;;;;;15.76;100.00;101922.13;4934745;29;20477;-80
2023/08/17 03:57:03;;;;;;;6.90;3.15;;;;;;;15.74;100.00;101917.97;4934934;29;20083;-80
2023/08/17 03:59:28;;;;;;;5.82;3.10;;;;;;;15.38;100.00;101871.75;4934943;29;20031;-80
2023/08/17 04:01:53;;;;;;;7.28;3.28;;;;;;;15.60;100.00;101936.22;4935009;29;20033;-79
2023/08/17 04:04:19;;;;;;;7.47;3.45;;;;;;;15.53;100.00;101940.16;4934819;29;20028;-80
2023/08/17 04:06:44;;;;;;;7.20;3.10;;;;;;;15.49;100.00;101942.16;4934779;29;20059;-80
2023/08/17 04:09:10;;;;;;;7.53;3.58;;;;;;;15.30;100.00;101920.88;4934816;29;20024;-77
2023/08/17 04:11:38;;;;;;;6.28;3.45;;;;;;;15.37;100.00;101942.97;4934591;29;20130;-80
2023/08/17 04:14:05;;;;;;;8.07;3.47;;;;;;;15.23;100.00;101927.38;4934447;29;20036;-78
2023/08/17 04:16:30;;;;;;;7.03;3.28;;;;;;;15.20;100.00;101934.47;4936457;29;20034;-79
2023/08/17 04:18:55;;;;;;;8.05;3.25;;;;;;;15.30;100.00;101934.72;4938412;29;20028;-79
2023/08/17 04:21:21;;;;;;;9.13;3.45;;;;;;;15.41;100.00;101955.66;4938248;29;20032;-81
2023/08/17 04:23:46;;;;;;;6.28;3.33;;;;;;;15.42;100.00;101959.09;4938244;29;20035;-82
2023/08/17 04:26:12;;;;;;;8.05;3.53;;;;;;;15.37;100.00;101940.34;4938211;29;20191;-81
2023/08/17 04:28:37;;;;;;;8.15;3.63;;;;;;;15.45;100.00;101943.28;4937925;29;20051;-81
2023/08/17 04:31:03;;;;;;;8.23;3.85;;;;;;;15.56;100.00;101961.66;4938094;29;20042;-82
2023/08/17 04:33:28;;;;;;;6.40;3.60;;;;;;;15.33;100.00;101925.84;4920638;29;20042;-81
2023/08/17 04:35:54;;;;;;;5.85;3.40;;;;;;;15.65;100.00;101963.66;4936738;29;20059;-80
2023/08/17 04:38:19;;;;;;;7.30;3.13;;;;;;;15.69;100.00;101962.53;4937866;29;20083;-81
2023/08/17 04:40:44;;;;;;;7.90;3.42;;;;;;;15.75;100.00;101961.28;4938011;29;20062;-80
2023/08/17 04:43:10;;;;;;;8.75;3.70;;;;;;;15.72;100.00;101967.50;4937903;29;20457;-81
2023/08/17 04:45:36;;;;;;;6.05;3.30;;;;;;;15.67;100.00;101950.53;4937887;29;20056;-77
2023/08/17 04:48:01;;;;;;;9.52;3.58;;;;;;;15.69;100.00;101941.69;4937838;29;20047;-81
2023/08/17 04:50:26;;;;;;;6.00;3.28;;;;;;;15.77;100.00;101942.00;4937610;29;20469;-81
2023/08/17 04:52:52;;;;;;;6.28;3.38;;;;;;;15.87;100.00;101964.84;4937634;29;20031;-81
2023/08/17 04:55:17;;;;;;;8.07;3.20;;;;;;;15.89;100.00;101952.53;4937800;29;20028;-81
2023/08/17 04:57:42;;;;;;;8.93;3.38;;;;;;;15.93;100.00;101954.03;4937527;29;20095;-81
2023/08/17 05:00:09;;;;;;;6.65;3.28;;;;;;;15.89;100.00;101942.13;4937820;29;20079;-80
2023/08/17 05:02:35;;;;;;;7.72;3.40;;;;;;;15.98;100.00;101957.13;4937500;29;20520;-82
2023/08/17 05:05:03;;;;;;;6.40;3.35;;;;;;;16.04;100.00;101951.53;4937425;29;20119;-80
2023/08/17 05:07:29;;;;;;;6.85;3.22;;;;;;;15.93;100.00;101944.44;4937507;29;20055;-80
2023/08/17 05:09:54;;;;;;;6.50;2.95;;;;;;;15.81;100.00;101924.41;4937407;29;20038;-81
2023/08/17 05:12:19;;;;;;;7.60;3.05;;;;;;;16.01;100.00;101956.91;4920379;29;20028;-81
2023/08/17 05:14:45;;;;;;;6.55;3.47;;;;;;;16.03;100.00;101947.25;4937113;29;20079;-81
2023/08/17 05:17:10;;;;;;;6.93;3.35;;;;;;;15.96;100.00;101928.59;4937401;29;20028;-81
2023/08/17 05:19:37;;;;;;;7.65;3.10;;;;;;;16.08;100.00;101939.94;4937127;29;20032;-80
2023/08/17 05:22:03;;;;;;;6.53;3.38;;;;;;;15.98;100.00;101926.69;4935790;29;20444;-81
2023/08/17 05:24:28;;;;;;;9.02;3.53;;;;;;;15.96;100.00;101920.78;4937211;29;20036;-81
2023/08/17 05:26:54;;;;;;;9.35;3.20;;;;;;;16.11;100.00;101944.09;4936498;29;20421;-81
2023/08/17 05:29:19;;;;;;;8.23;3.42;;;;;;;16.11;100.00;101946.69;4936461;29;20020;-80
2023/08/17 05:31:44;;;;;;;9.85;3.60;;;;;;;16.13;100.00;101950.06;4937136;29;20122;-81
2023/08/17 05:34:10;;;;;;;7.30;3.58;;;;;;;16.11;100.00;101936.28;4936918;29;20151;-81
2023/08/17 05:36:36;;;;;;;6.82;2.90;;;;;;;16.12;100.00;101935.34;4937097;29;20106;-84
2023/08/17 05:39:01;;;;;;;6.35;3.25;;;;;;;16.19;100.00;101944.41;4936695;29;20027;-82
2023/08/17 05:41:26;;;;;;;9.68;3.78;;;;;;;16.16;100.00;101936.81;4936837;29;20032;-82
2023/08/17 05:43:52;;;;;;;5.22;3.15;;;;;;;16.32;100.00;101942.59;4936807;29;20032;-80
2023/08/17 05:46:17;;;;;;;6.38;2.97;;;;;;;16.51;100.00;101949.97;4936821;29;20035;-81
2023/08/17 05:48:42;;;;;;;5.57;2.80;;;;;;;16.79;100.00;101951.50;4936765;29;20054;-81
2023/08/17 05:51:07;;;;;;;7.75;3.15;;;;;;;16.98;100.00;101951.03;4936692;29;20135;-81
2023/08/17 05:53:33;;;;;;;6.53;2.97;;;;;;;16.72;100.00;101906.78;4936795;29;20683;-82
2023/08/17 05:55:58;;;;;;;6.50;3.20;;;;;;;16.83;100.00;101906.84;4936503;29;20035;-82
2023/08/17 05:58:24;;;;;;;8.23;3.10;;;;;;;17.08;100.00;101924.16;4935436;29;20038;-82
2023/08/17 06:00:49;;;;;;;6.82;3.38;;;;;;;17.42;100.00;101958.25;4936364;29;20031;-81
2023/08/17 06:03:15;;;;;;;5.68;2.85;;;;;;;17.83;95.82;101959.56;4936623;29;20027;-80
2023/08/17 06:05:40;;;;;;;7.32;2.97;;;;;;;18.44;97.44;101933.94;4936390;29;20027;-81
2023/08/17 06:08:05;;;;;;;6.03;2.83;;;;;;;18.68;93.06;101958.19;4936388;29;20079;-81
2023/08/17 06:10:31;;;;;;;6.53;3.10;;;;;;;18.39;90.36;101975.31;4936188;29;20028;-80
2023/08/17 06:12:57;;;;;;;9.45;3.53;;;;;;;18.67;88.96;101953.88;4936316;29;20028;-81
2023/08/17 06:15:23;;;;;;;5.65;2.83;;;;;;;19.07;90.87;101964.63;4935978;29;20094;-81
2023/08/17 06:17:51;;;;;;;5.95;3.22;;;;;;;19.15;87.06;101980.53;4936352;29;20024;-82
2023/08/17 06:20:18;;;;;;;4.57;2.60;;;;;;;18.81;88.54;101948.41;4936240;29;20035;-81
2023/08/17 06:22:43;;;;;;;5.47;2.30;;;;;;;18.72;89.38;101974.47;4935993;29;20031;-81
2023/08/17 06:25:09;;;;;;;7.38;3.20;;;;;;;18.73;90.19;101981.38;4935996;29;20035;-81
2023/08/17 06:27:35;;;;;;;6.13;2.85;;;;;;;18.70;91.98;101973.78;4935799;29;20052;-79
2023/08/17 06:30:04;;;;;;;5.78;2.47;;;;;;;18.71;91.69;101975.44;4935665;29;20371;-79
2023/08/17 06:32:30;;;;;;;7.13;3.03;;;;;;;18.64;89.07;101980.28;4936037;29;20031;-79
2023/08/17 06:34:55;;;;;;;5.18;2.70;;;;;;;18.72;90.01;101982.31;4934377;29;20123;-78
2023/08/17 06:37:21;;;;;;;5.82;2.92;;;;;;;18.74;90.80;101952.47;4935885;29;20103;-79
2023/08/17 06:39:46;;;;;;;7.07;2.72;;;;;;;19.01;88.84;101967.75;4935385;29;20027;-79
2023/08/17 06:42:11;;;;;;;7.15;3.10;;;;;;;18.74;86.21;101947.22;4935934;29;20385;-79
2023/08/17 06:44:37;;;;;;;6.80;2.90;;;;;;;18.79;89.31;101949.50;4935585;29;20110;-80
2023/08/17 06:47:02;;;;;;;10.60;3.63;;;;;;;18.75;86.98;101956.72;4935769;29;20485;-79
2023/08/17 06:49:28;;;;;;;6.15;2.67;;;;;;;19.08;88.65;101976.78;4935640;29;20473;-78
2023/08/17 06:51:53;;;;;;;6.82;2.90;;;;;;;19.35;86.37;101985.94;4916802;29;20039;-77
2023/08/17 06:54:19;;;;;;;7.20;2.85;;;;;;;19.37;84.19;101976.16;4916483;29;20028;-78
2023/08/17 06:56:44;;;;;;;6.85;3.13;;;;;;;19.73;83.86;101949.56;4916325;29;20119;-79
2023/08/17 06:59:09;;;;;;;6.45;2.88;;;;;;;20.26;80.33;101975.69;4916311;29;20378;-80
2023/08/17 07:01:35;;;;;;;8.50;3.08;;;;;;;20.22;79.87;101973.44;4915967;29;20083;-81
2023/08/17 07:04:01;;;;;;;6.22;2.47;;;;;;;19.91;81.58;101967.34;4929928;29;20026;-80
2023/08/17 07:06:26;;;;;;;8.45;2.90;;;;;;;19.54;81.37;101978.25;4935320;29;20055;-80
2023/08/17 07:08:52;;;;;;;6.70;2.78;;;;;;;19.39;85.44;101984.75;4935406;29;20035;-81
2023/08/17 07:11:18;;;;;;;6.45;3.03;;;;;;;18.98;84.74;101964.56;4935080;29;20028;-81
2023/08/17 07:13:44;;;;;;;7.80;3.28;;;;;;;18.92;85.57;101986.81;4935531;29;20036;-80
2023/08/17 07:16:09;;;;;;;8.25;3.53;;;;;;;18.89;85.83;101981.81;4935263;29;20054;-81
2023/08/17 07:18:34;;;;;;;7.13;3.30;;;;;;;18.75;87.63;101985.53;4935446;29;20024;-81
2023/08/17 07:21:00;;;;;;;7.68;3.42;;;;;;;18.70;89.58;101960.69;4935355;29;20086;-80
2023/08/17 07:23:25;;;;;;;6.72;3.17;;;;;;;18.82;88.38;101957.91;4935473;29;20027;-82
2023/08/17 07:25:50;;;;;;;6.97;3.13;;;;;;;18.83;86.11;101961.38;4935363;29;20486;-81
2023/08/17 07:28:16;;;;;;;7.55;3.45;;;;;;;18.92;87.36;101985.00;4934965;29;20111;-80
2023/08/17 07:30:41;;;;;;;7.75;3.55;;;;;;;18.60;86.79;101956.16;4935130;29;20533;-80
2023/08/17 07:33:07;;;;;;;8.30;3.53;;;;;;;18.65;87.25;101968.06;4935069;29;20083;-79
2023/08/17 07:35:32;;;;;;;8.40;3.60;;;;;;;18.80;86.84;101987.78;4935189;29;20027;-79
2023/08/17 07:37:57;;;;;;;4.22;2.38;;;;;;;18.99;85.78;101988.00;4935160;29;20111;-80
2023/08/17 07:40:23;;;;;;;7.50;3.53;;;;;;;19.02;85.08;101990.34;4935106;29;20070;-79
2023/08/17 07:42:48;;;;;;;6.55;3.03;;;;;;;19.09;84.22;101988.06;4934993;29;20039;-79
2023/08/17 07:45:13;;;;;;;5.93;2.90;;;;;;;19.16;86.37;101956.00;4935012;29;20138;-79
2023/08/17 07:47:39;;;;;;;7.97;3.40;;;;;;;19.28;83.36;101958.63;4935022;29;20028;-79
2023/08/17 07:50:05;;;;;;;7.50;3.63;;;;;;;19.25;83.70;101988.47;4934955;29;20107;-79
2023/08/17 07:52:30;;;;;;;9.30;3.67;;;;;;;18.80;83.94;101948.53;4938425;29;20023;-79
2023/08/17 07:54:56;;;;;;;6.30;3.35;;;;;;;19.02;85.51;101979.88;4921094;29;20516;-76
2023/08/17 07:57:21;;;;;;;7.97;2.85;;;;;;;19.37;84.49;101963.94;4938752;29;20027;-80
2023/08/17 07:59:46;;;;;;;6.82;3.28;;;;;;;19.96;81.92;101989.59;4938507;29;20036;-79
2023/08/17 08:02:12;;;;;;;5.63;3.40;;;;;;;19.94;81.66;101972.31;4938621;29;20031;-80
2023/08/17 08:04:37;;;;;;;7.78;3.00;;;;;;;20.24;81.52;101990.69;4938562;29;20383;-78
2023/08/17 08:07:02;;;;;;;8.65;3.40;;;;;;;20.14;80.50;101988.97;4938566;29;20390;-78
2023/08/17 08:09:28;;;;;;;6.65;3.05;;;;;;;19.90;81.28;101991.91;4938818;29;20039;-79
2023/08/17 08:11:53;;;;;;;8.07;3.53;;;;;;;19.59;82.01;101997.06;4938527;29;20047;-79
2023/08/17 08:14:18;;;;;;;7.82;3.10;;;;;;;19.50;82.88;101976.84;4938334;29;20023;-79
2023/08/17 08:16:44;;;;;;;6.88;3.53;;;;;;;19.51;82.01;101970.63;4938111;29;20126;-78
2023/08/17 08:19:09;;;;;;;7.05;3.22;;;;;;;19.60;82.43;101979.56;4938440;29;20075;-79
2023/08/17 08:21:34;;;;;;;8.65;3.13;;;;;;;19.56;84.05;101965.03;4938351;29;20393;-79
2023/08/17 08:24:00;;;;;;;6.60;3.60;;;;;;;19.77;82.77;101989.47;4938204;29;20031;-79
2023/08/17 08:26:25;;;;;;;7.13;2.95;;;;;;;19.79;83.78;101989.34;4938251;29;20039;-78
2023/08/17 08:28:50;;;;;;;7.55;2.80;;;;;;;19.75;83.90;101979.09;4938086;29;20050;-78
2023/08/17 08:31:16;;;;;;;6.10;3.25;;;;;;;19.81;84.86;101983.00;4937766;29;20036;-79
2023/08/17 08:33:41;;;;;;;8.57;3.70;;;;;;;19.82;82.08;101996.94;4938051;29;20039;-79
2023/08/17 08:36:06;;;;;;;7.20;3.55;;;;;;;19.53;84.15;101955.63;4938039;29;20031;-75
2023/08/17 08:38:32;;;;;;;6.82;3.50;;;;;;;19.85;84.55;101999.31;4937883;29;20024;-81
2023/08/17 08:40:58;;;;;;;7.97;3.20;;;;;;;19.74;84.11;101995.78;4938071;29;20039;-81
2023/08/17 08:43:24;;;;;;;7.93;4.40;;;;;;;19.53;83.07;101991.47;4937968;29;20019;-80
2023/08/17 08:45:51;;;;;;;12.07;3.83;;;;;;;19.34;83.21;101997.38;4937746;29;20481;-80
2023/08/17 08:48:18;;;;;;;6.47;3.30;;;;;;;19.23;85.49;102002.66;4937770;29;20038;-80
2023/08/17 08:50:46;;;;;;;7.65;2.97;;;;;;;19.28;86.71;101984.81;4937474;29;20082;-77
2023/08/17 08:53:17;;;;;;;6.00;3.20;;;;;;;19.35;85.44;101996.41;4937607;29;20035;-76
2023/08/17 08:55:53;;;;;;;8.32;3.90;;;;;;;19.22;85.14;101987.91;4937705;29;20028;-76
2023/08/17 08:58:19;;;;;;;7.70;3.55;;;;;;;18.95;86.49;101951.69;4937726;29;20038;-77
2023/08/17 09:00:47;;;;;;;7.82;3.92;;;;;;;18.92;86.66;101958.84;4937467;29;20027;-75
2023/08/17 09:03:16;;;;;;;6.68;3.63;;;;;;;18.99;87.19;101974.06;4937145;29;20117;-76
2023/08/17 09:05:43;;;;;;;8.55;4.15;;;;;;;18.95;86.30;101970.84;4937421;29;20039;-76
2023/08/17 09:08:09;;;;;;;7.53;3.95;;;;;;;18.70;87.13;101955.44;4937448;29;20027;-77
2023/08/17 09:10:35;;;;;;;8.00;4.28;;;;;;;18.71;86.33;101978.03;4937396;29;20114;-79
2023/08/17 09:13:00;;;;;;;11.13;4.60;;;;;;;18.51;88.39;101969.94;4937340;29;20055;-77
2023/08/17 09:15:25;;;;;;;9.23;4.18;;;;;;;18.57;89.46;101977.28;4937380;29;20493;-78
2023/08/17 09:17:51;;;;;;;11.80;4.53;;;;;;;18.50;88.49;101972.69;4937036;29;20028;-77
2023/08/17 09:20:37;;;;;;;11.73;4.95;;;;;;;18.50;89.60;101983.97;4937199;29;20508;-76
2023/08/17 09:23:04;;;;;;;7.93;4.60;;;;;;;18.27;90.00;101940.47;4937261;29;20020;-75
2023/08/17 09:25:31;;;;;;;10.35;4.47;;;;;;;18.39;90.51;101936.91;4937157;29;20024;-76
2023/08/17 09:27:57;;;;;;;10.65;4.68;;;;;;;18.51;88.51;101948.19;4916993;29;20095;-76
2023/08/17 09:30:22;;;;;;;9.02;3.97;;;;;;;18.70;90.75;101979.00;4900470;29;20438;-80
2023/08/17 09:32:48;;;;;;;11.82;5.45;;;;;;;18.71;89.20;101986.72;4917681;29;20024;-75
2023/08/17 09:35:13;;;;;;;10.60;4.43;;;;;;;18.68;89.07;101965.19;4918300;29;20218;-77
2023/08/17 09:37:38;;;;;;;8.45;5.28;;;;;;;18.77;89.71;101974.94;4917782;29;20400;-74
2023/08/17 09:40:04;;;;;;;9.48;5.72;;;;;;;18.67;87.75;101968.75;4917725;29;20482;-75
2023/08/17 09:42:34;;;;;;;9.68;5.72;;;;;;;18.64;89.04;101980.28;4917829;29;20032;-77
2023/08/17 09:45:01;;;;;;;10.75;5.28;;;;;;;18.74;91.17;101969.94;4917831;29;20505;-77
2023/08/17 09:47:26;;;;;;;11.55;5.63;;;;;;;18.91;87.97;101969.44;4917744;29;20127;-77
2023/08/17 09:49:53;;;;;;;11.27;5.65;;;;;;;19.00;88.16;101963.47;4917492;29;20046;-77
2023/08/17 09:52:19;;;;;;;9.73;5.30;;;;;;;19.13;87.82;101969.38;4917573;29;20028;-79
2023/08/17 09:54:47;;;;;;;10.15;4.47;;;;;;;19.43;88.33;101966.03;4917683;29;20028;-78
2023/08/17 09:57:12;;;;;;;11.18;5.35;;;;;;;19.54;87.52;101961.69;4917482;29;20032;-79
2023/08/17 09:59:38;;;;;;;11.27;5.70;;;;;;;19.30;87.88;101913.00;4917663;29;20031;-79
2023/08/17 10:02:14;;;;;;;11.23;5.40;;;;;;;19.44;87.04;101943.28;4917577;29;20529;-81
2023/08/17 10:04:40;;;;;;;11.70;5.55;;;;;;;19.61;87.14;101950.59;4917409;29;20024;-80
2023/08/17 10:07:07;;;;;;;11.02;5.38;;;;;;;19.67;88.96;101954.53;4917389;29;20106;-80
2023/08/17 10:09:44;;;;;;;9.43;5.47;;;;;;;19.61;85.97;101945.38;4917361;29;20032;-79
2023/08/17 10:12:15;;;;;;;12.63;6.20;;;;;;;19.51;85.67;101944.44;4915485;29;20184;-80
2023/08/17 10:14:46;;;;;;;10.10;6.28;;;;;;;19.29;86.96;101936.69;4916764;29;20063;-79
2023/08/17 10:17:19;;;;;;;9.57;4.88;;;;;;;19.25;88.72;101925.63;4917250;29;20020;-79
2023/08/17 10:19:52;;;;;;;10.93;5.05;;;;;;;19.58;89.71;101953.50;4917091;29;20036;-79
2023/08/17 10:22:44;;;;;;;9.70;5.18;;;;;;;19.66;88.05;101945.78;4917294;29;20035;-80
2023/08/17 10:25:27;;;;;;;10.02;5.70;;;;;;;19.25;87.31;101875.88;5140638;23;20489;-79
2023/08/17 10:28:10;;;;;;;10.90;5.93;;;;;;;18.92;87.04;101841.06;4917223;29;20079;-80
2023/08/17 10:42:37;;;;;;;9.73;4.90;;;;;;;19.83;85.83;101906.88;5689435;23;20063;-81
2023/08/17 10:45:21;;;;;;;10.27;5.13;;;;;;;20.03;86.22;101940.06;4897457;29;20049;-81
2023/08/17 10:47:47;;;;;;;10.18;5.63;;;;;;;19.88;83.89;101925.66;4897776;29;20040;-81
2023/08/17 10:50:25;;;;;;;10.18;5.82;;;;;;;19.55;85.43;101930.13;4897517;29;20036;-80
2023/08/17 10:52:53;;;;;;;12.75;6.20;;;;;;;19.51;88.16;101947.06;4897847;29;20028;-81
2023/08/17 10:55:36;;;;;;;10.90;6.28;;;;;;;19.53;87.34;101934.66;4897712;29;20073;-78
2023/08/17 10:58:02;;;;;;;11.20;6.10;;;;;;;19.46;86.99;101944.81;4897742;29;20038;-79
2023/08/17 11:00:34;;;;;;;15.30;6.90;;;;;;;19.40;87.50;101941.88;4897704;29;20024;-80
2023/08/17 11:03:02;;;;;;;11.50;7.05;;;;;;;19.24;89.33;101939.69;4896566;29;20084;-80
2023/08/17 11:05:46;;;;;;;10.43;6.22;;;;;;;19.06;89.32;101905.34;4897949;29;20094;-80
2023/08/17 11:08:32;;;;;;;10.45;6.55;;;;;;;19.30;88.55;101907.75;4897558;29;20438;-80
2023/08/17 11:10:58;;;;;;;13.15;6.82;;;;;;;19.60;88.34;101942.88;4897199;29;20043;-82
2023/08/17 11:13:26;;;;;;;15.73;6.80;;;;;;;19.53;88.21;101937.28;4897490;29;20032;-80
2023/08/17 11:15:52;;;;;;;13.98;7.60;;;;;;;19.61;87.68;101949.78;4897528;29;20046;-82
2023/08/17 11:18:17;;;;;;;16.95;8.25;;;;;;;19.18;87.34;101907.00;4880801;29;20521;-83
2023/08/17 11:20:43;;;;;;;11.88;7.93;;;;;;;19.31;88.85;101937.41;4897043;29;20399;-81
2023/08/17 11:23:10;;;;;;;10.80;6.32;;;;;;;19.66;88.79;101944.97;4897290;29;20507;-82
2023/08/17 11:25:37;;;;;;;13.77;6.90;;;;;;;19.54;87.95;101904.88;4899066;29;20095;-81
2023/08/17 11:28:03;;;;;;;12.10;6.65;;;;;;;19.71;86.38;101930.53;4898685;29;20041;-81
2023/08/17 11:30:29;;;;;;;14.70;7.45;;;;;;;19.81;87.04;101948.94;4901343;29;20058;-82
2023/08/17 11:32:56;;;;;;;10.60;7.05;;;;;;;19.69;86.54;101903.63;4901345;29;20059;-80